OIHH  Hamadan  Airport

Hamadan, Iran

Add Bookmark
ICAO OIHH
IATA HDM
Type Airport
Status Operational
Latitude
34° 52' 9" N
34.869202
Longitude
48° 33' 9" E
48.552502
Local (DST + 5) UTC (GMT + 4)
May 29, 2015 08:39 May 29, 2015 16:09
Sunrise-Sunset Local UTC
Begin Civil Twilight 05:33 01:03
Sunrise 06:02 01:32
Sunset 08:23 15:53
End Civil Twilight 08:52 16:22
VFR
VFR
MVFR
MVFR
IFR
VFR
LIFR
VFR
Unknown
Unavailable

Current Weather

METAR Observed IFR
OIHH 291352Z 18008KT 3000 DU FEW040 SCT090 25/05 Q1018 Fri, May 29, 2015 @ 13:52 UTC
(2 Hours, 17 Minutes ago)
Instrument Flight Rules
Wind Visibility Clouds Conditions
180° at 8 knots (15 kph) 2,993 m
  • Few at 4,000 ft AGL
  • Scattered at 9,000 ft AGL
  • Dust
Temperatures Readings Precipitation
Current Temp
25°C
77°F
Dewpoint
5°C
41°F
Humidity 28%
Altimeter 30.06" Hg
Sea Level Pressure 1,018 mb
Field Elevation
1,757 m
5,764 ft
None Recorded

Additional weather within a 92.6km radius of OIHH

Map ICAO Location
OIHM 69.5km S/SE (160°)
VFR
VFR
MVFR
MVFR
IFR
VFR
LIFR
VFR
Unknown
Unavailable
-
-

CheckWX.com is intended as a tool to help pilots better visualize weather data. It is not intended as a substitute for an official weather briefing obtained from a Flight Service Station. CheckWX.com does not meet the FAA requirements for an official pre-flight weather briefing. Therefore, it's important that pilots still call and obtain an official FSS pre-flight weather briefing.

© 2007-2015 CheckWX.com
16:09:19 UTC